Time;durP1;ratioP1;P1;durP2;ratioP2;P2;SDS_P1;SDS_P2;PMS_P1;PMS_P2;Temp;Humidity;BMP_temperature;BMP_pressure;BME280_temperature;BME280_humidity;BME280_pressure;Samples;Min_cycle;Max_cycle;Signal;HPM_P1;HPM_P2
2023/04/29 00:01:43;;;;;;;1.35;1.00;;;;;;;18.10;60.65;101276.44;4974983;28;20114;-48
2023/04/29 00:04:09;;;;;;;1.83;0.90;;;;;;;17.92;61.64;101284.75;4985684;28;20037;-50
2023/04/29 00:06:36;;;;;;;2.10;1.15;;;;;;;17.82;61.24;101284.56;4994523;28;20022;-49
2023/04/29 00:09:03;;;;;;;1.77;0.90;;;;;;;17.52;63.21;101291.03;4994599;28;20068;-48
2023/04/29 00:11:29;;;;;;;1.83;0.88;;;;;;;17.29;64.21;101294.66;4994557;28;20039;-49
2023/04/29 00:13:55;;;;;;;1.85;0.98;;;;;;;17.34;64.41;101288.53;4994521;28;20479;-48
2023/04/29 00:16:22;;;;;;;2.58;0.80;;;;;;;17.12;64.42;101294.56;4994366;28;20031;-51
2023/04/29 00:18:48;;;;;;;3.88;1.25;;;;;;;16.72;66.19;101297.22;4994233;28;20073;-48
2023/04/29 00:21:15;;;;;;;2.83;1.10;;;;;;;17.19;65.46;101299.03;4994381;28;20130;-46
2023/04/29 00:23:41;;;;;;;2.80;1.00;;;;;;;17.06;65.27;101300.13;4993839;28;20046;-50
2023/04/29 00:26:07;;;;;;;1.55;1.00;;;;;;;16.97;65.73;101305.06;4994287;28;20034;-48
2023/04/29 00:28:34;;;;;;;3.15;1.23;;;;;;;16.88;65.95;101295.66;4993958;28;20097;-49
2023/04/29 00:31:00;;;;;;;1.00;0.88;;;;;;;16.84;66.59;101294.50;4987025;28;20031;-51
2023/04/29 00:33:26;;;;;;;2.67;1.20;;;;;;;16.93;65.75;101308.47;4974186;28;20364;-47
2023/04/29 00:35:52;;;;;;;4.32;1.15;;;;;;;17.02;65.73;101315.97;4974262;28;20023;-48
2023/04/29 00:38:19;;;;;;;5.00;1.15;;;;;;;16.81;66.14;101306.59;4974294;28;20471;-47
2023/04/29 00:40:46;;;;;;;2.90;1.25;;;;;;;16.53;66.94;101314.53;4985774;28;20022;-52
2023/04/29 00:43:12;;;;;;;1.58;1.13;;;;;;;16.34;67.88;101317.34;4991568;28;20038;-58
2023/04/29 00:45:39;;;;;;;3.42;2.10;;;;;;;16.20;68.41;101310.50;4992292;28;20022;-58
2023/04/29 00:48:05;;;;;;;3.03;1.80;;;;;;;15.86;69.86;101312.06;4988823;28;20037;-57
2023/04/29 00:50:32;;;;;;;2.65;1.50;;;;;;;15.91;70.28;101319.47;4974248;28;20023;-58
2023/04/29 00:52:58;;;;;;;2.42;1.27;;;;;;;16.11;69.72;101309.22;4976192;28;20286;-54
2023/04/29 00:55:25;;;;;;;2.33;1.30;;;;;;;16.29;69.05;101319.09;4992865;28;20478;-54
2023/04/29 00:57:52;;;;;;;2.53;1.15;;;;;;;16.18;68.98;101323.44;4992181;28;20060;-59
2023/04/29 01:00:19;;;;;;;3.53;1.65;;;;;;;16.17;69.05;101318.25;4992794;28;20026;-56
2023/04/29 01:02:46;;;;;;;2.30;1.50;;;;;;;15.66;70.16;101323.13;4993514;28;20053;-55
2023/04/29 01:05:13;;;;;;;4.13;1.70;;;;;;;15.61;70.62;101322.97;4992811;28;20058;-54
2023/04/29 01:08:10;;;;;;;3.28;1.95;;;;;;;15.43;72.09;101318.38;4992538;28;20394;-55
2023/04/29 01:11:00;;;;;;;3.22;2.22;;;;;;;15.46;72.01;101317.94;4979134;28;20074;-51
2023/04/29 01:13:35;;;;;;;6.63;1.60;;;;;;;15.44;72.30;101319.25;4974207;28;20074;-52
2023/04/29 01:16:03;;;;;;;1.98;1.63;;;;;;;15.41;72.48;101320.50;4973983;28;20031;-52
2023/04/29 01:18:40;;;;;;;2.88;1.65;;;;;;;15.38;72.25;101322.81;4981475;28;20457;-52
2023/04/29 01:21:06;;;;;;;3.30;2.15;;;;;;;15.38;72.58;101323.66;4993508;28;20113;-52
2023/04/29 01:23:33;;;;;;;3.20;2.35;;;;;;;15.21;72.79;101323.44;4992903;28;20050;-50
2023/04/29 01:25:59;;;;;;;3.83;2.00;;;;;;;14.95;73.63;101315.63;4993437;28;20635;-51
2023/04/29 01:28:40;;;;;;;5.82;2.20;;;;;;;14.94;73.70;101312.13;4992471;28;20081;-52
2023/04/29 01:31:14;;;;;;;3.88;1.75;;;;;;;14.82;74.10;101315.75;4993332;28;20053;-52
2023/04/29 01:34:05;;;;;;;2.80;1.98;;;;;;;14.78;74.78;101301.91;4993345;28;20030;-53
2023/04/29 01:36:56;;;;;;;3.03;1.92;;;;;;;14.63;75.87;101317.59;4993534;28;20030;-53
2023/04/29 01:39:45;;;;;;;3.13;1.73;;;;;;;14.41;75.98;101307.19;4992973;28;20026;-53
2023/04/29 01:42:38;;;;;;;5.60;1.88;;;;;;;14.45;76.32;101305.72;4982217;28;20411;-53
2023/04/29 01:45:09;;;;;;;1.58;1.40;;;;;;;14.49;76.41;101309.66;4973412;28;20309;-53
2023/04/29 01:47:36;;;;;;;3.10;1.70;;;;;;;14.61;76.06;101306.22;4972715;28;20080;-54
2023/04/29 01:50:03;;;;;;;3.45;1.98;;;;;;;14.41;76.83;101301.78;4973241;28;20113;-54
2023/04/29 01:52:29;;;;;;;4.65;1.90;;;;;;;14.24;77.88;101311.47;4973008;28;20034;-53
2023/04/29 01:54:56;;;;;;;4.38;2.10;;;;;;;14.09;78.36;101302.88;4973528;28;20121;-53
2023/04/29 01:57:22;;;;;;;4.97;2.22;;;;;;;14.40;77.70;101305.53;4973061;28;20471;-53
2023/04/29 01:59:48;;;;;;;3.25;1.92;;;;;;;14.24;77.89;101304.22;4972816;28;20031;-53
2023/04/29 02:02:16;;;;;;;4.32;2.13;;;;;;;14.24;77.72;101303.38;4973005;28;20098;-54
2023/04/29 02:04:42;;;;;;;3.22;1.88;;;;;;;14.22;77.90;101314.38;4973216;28;20022;-52
2023/04/29 02:07:08;;;;;;;3.83;2.20;;;;;;;14.11;78.66;101307.00;4972549;28;20098;-53
2023/04/29 02:09:35;;;;;;;3.38;2.08;;;;;;;14.30;78.00;101305.19;4972785;28;20034;-53
2023/04/29 02:12:03;;;;;;;2.97;2.25;;;;;;;13.97;78.73;101306.25;4973087;28;20546;-53
2023/04/29 02:14:30;;;;;;;4.38;1.90;;;;;;;14.07;78.72;101302.28;4972763;28;20031;-50
2023/04/29 02:16:56;;;;;;;2.47;1.90;;;;;;;13.95;79.00;101302.16;4975521;28;20054;-52
2023/04/29 02:19:23;;;;;;;7.25;2.15;;;;;;;13.97;79.00;101298.19;4976811;28;20121;-53
2023/04/29 02:21:49;;;;;;;2.60;2.30;;;;;;;14.12;78.35;101299.75;4977933;28;20403;-53
2023/04/29 02:24:15;;;;;;;3.28;2.00;;;;;;;13.83;79.27;101301.19;4976628;28;20356;-53
2023/04/29 02:26:42;;;;;;;3.63;2.10;;;;;;;13.72;79.96;101303.53;4976476;28;20102;-53
2023/04/29 02:29:08;;;;;;;4.05;2.30;;;;;;;13.77;80.04;101308.28;4976836;28;20034;-53
2023/04/29 02:31:35;;;;;;;3.65;2.78;;;;;;;13.76;80.22;101311.97;4977074;28;20039;-53
2023/04/29 02:34:01;;;;;;;4.38;2.67;;;;;;;13.45;81.32;101310.06;4977873;28;20022;-53
2023/04/29 02:36:27;;;;;;;3.25;2.55;;;;;;;13.38;81.91;101314.63;4989552;28;20033;-53
2023/04/29 02:38:55;;;;;;;3.47;2.30;;;;;;;13.50;80.82;101312.13;4995448;28;20398;-54
2023/04/29 02:41:21;;;;;;;3.55;2.38;;;;;;;13.24;81.92;101313.88;5003203;23;20050;-52
2023/04/29 02:43:48;;;;;;;2.67;2.20;;;;;;;13.29;82.05;101318.63;4995884;28;20050;-54
2023/04/29 02:46:15;;;;;;;4.03;2.50;;;;;;;13.30;82.20;101315.72;4988507;28;20046;-51
2023/04/29 02:48:41;;;;;;;2.83;2.25;;;;;;;13.38;81.59;101320.88;4997851;28;20037;-52
2023/04/29 02:51:08;;;;;;;3.15;2.15;;;;;;;13.41;81.34;101319.59;4995902;28;20069;-53
2023/04/29 02:53:34;;;;;;;3.30;2.25;;;;;;;13.22;82.21;101325.88;4979839;28;20049;-53
2023/04/29 02:56:00;;;;;;;6.68;2.55;;;;;;;13.19;82.79;101325.22;4975778;28;20023;-53
2023/04/29 02:58:26;;;;;;;5.03;3.25;;;;;;;13.16;83.04;101324.84;4975894;28;20083;-54
2023/04/29 03:00:53;;;;;;;5.25;2.85;;;;;;;13.11;82.91;101322.78;4975865;28;20037;-51
2023/04/29 03:03:19;;;;;;;5.35;2.67;;;;;;;12.71;84.28;101327.38;4976310;28;20498;-54
2023/04/29 03:05:45;;;;;;;3.90;3.00;;;;;;;12.74;84.35;101337.72;4970763;28;20030;-53
2023/04/29 03:08:11;;;;;;;5.90;3.25;;;;;;;12.66;84.87;101343.31;5000283;28;20458;-53
2023/04/29 03:10:38;;;;;;;3.58;3.00;;;;;;;12.68;84.71;101344.75;5004879;28;20086;-50
2023/04/29 03:13:04;;;;;;;5.22;2.80;;;;;;;12.66;85.40;101341.44;4995129;28;20022;-53
2023/04/29 03:15:31;;;;;;;3.92;3.25;;;;;;;12.75;85.27;101344.72;4980927;28;20037;-56
2023/04/29 03:18:00;;;;;;;5.50;3.42;;;;;;;12.78;85.14;101343.50;5005184;28;20114;-55
2023/04/29 03:20:28;;;;;;;7.70;4.80;;;;;;;12.62;85.83;101355.50;4991745;28;20391;-53
2023/04/29 03:22:54;;;;;;;7.22;5.20;;;;;;;12.66;85.88;101346.00;4986875;28;20038;-51
2023/04/29 03:25:21;;;;;;;5.68;4.93;;;;;;;12.54;86.29;101353.81;5006519;28;20052;-52
2023/04/29 03:27:48;;;;;;;6.07;4.00;;;;;;;12.49;85.95;101361.66;4994856;28;20069;-52
2023/04/29 03:30:14;;;;;;;5.53;3.65;;;;;;;12.50;86.07;101370.56;4995196;28;20438;-51
2023/04/29 03:32:40;;;;;;;5.07;4.05;;;;;;;12.46;86.58;101364.78;4991234;28;20027;-54
2023/04/29 03:35:07;;;;;;;13.23;3.05;;;;;;;12.40;86.33;101369.09;4975719;28;20086;-53
2023/04/29 03:37:33;;;;;;;4.18;3.45;;;;;;;12.48;86.54;101370.75;4975373;28;20019;-53
2023/04/29 03:39:59;;;;;;;5.85;3.75;;;;;;;12.57;86.04;101379.44;4975449;28;20054;-54
2023/04/29 03:42:25;;;;;;;6.10;4.43;;;;;;;12.55;85.87;101374.28;4981699;28;20027;-52
2023/04/29 03:44:52;;;;;;;4.28;3.88;;;;;;;12.49;86.23;101380.47;4995220;28;20034;-55
2023/04/29 03:47:18;;;;;;;5.55;3.58;;;;;;;12.51;86.44;101377.59;4994736;28;20037;-53
2023/04/29 03:49:45;;;;;;;4.05;2.92;;;;;;;12.43;86.70;101390.16;4994783;28;20026;-51
2023/04/29 03:52:11;;;;;;;4.25;3.17;;;;;;;12.50;86.73;101394.75;4995050;28;20057;-56
2023/04/29 03:54:37;;;;;;;3.90;3.17;;;;;;;12.57;86.81;101393.69;4994776;28;20023;-54
2023/04/29 03:57:04;;;;;;;5.40;2.85;;;;;;;12.55;85.89;101393.09;4994648;28;20452;-52
2023/04/29 03:59:30;;;;;;;7.25;3.22;;;;;;;12.36;86.65;101394.69;4994702;28;20114;-53
2023/04/29 04:01:57;;;;;;;3.85;3.38;;;;;;;12.31;87.57;101394.47;4994545;28;20157;-56
2023/04/29 04:04:23;;;;;;;5.05;3.40;;;;;;;12.32;87.85;101390.75;4994513;28;20045;-54
2023/04/29 04:06:50;;;;;;;2.88;2.22;;;;;;;12.30;87.15;101397.38;4994298;28;20483;-53
2023/04/29 04:09:19;;;;;;;2.80;2.30;;;;;;;12.19;87.46;101404.16;4989973;28;20034;-51
2023/04/29 04:11:46;;;;;;;3.25;2.50;;;;;;;12.32;87.03;101404.19;4974432;28;20034;-53
2023/04/29 04:14:12;;;;;;;3.53;3.20;;;;;;;12.33;87.71;101402.34;4974375;28;20395;-56
2023/04/29 04:16:39;;;;;;;3.80;3.10;;;;;;;12.39;87.19;101410.41;4974973;28;20606;-50
2023/04/29 04:19:05;;;;;;;2.88;2.65;;;;;;;12.49;86.52;101419.91;4982134;28;20027;-54
2023/04/29 04:21:31;;;;;;;4.28;2.50;;;;;;;12.39;86.92;101428.38;4994352;28;20027;-50
2023/04/29 04:23:58;;;;;;;2.97;2.05;;;;;;;12.15;86.95;101430.56;4994402;28;20041;-49
2023/04/29 04:26:24;;;;;;;2.92;2.10;;;;;;;12.16;87.15;101436.78;4992773;28;20422;-53
2023/04/29 04:28:50;;;;;;;3.60;2.28;;;;;;;12.08;88.04;101434.28;4994028;28;20037;-53
2023/04/29 04:31:16;;;;;;;3.80;3.05;;;;;;;12.08;88.97;101436.97;4994029;28;20030;-53
2023/04/29 04:33:42;;;;;;;6.13;3.67;;;;;;;12.20;88.45;101439.88;4994192;28;20029;-53
2023/04/29 04:36:09;;;;;;;4.78;2.90;;;;;;;12.20;88.09;101454.13;4993744;28;20026;-52
2023/04/29 04:38:35;;;;;;;3.38;2.75;;;;;;;12.14;87.70;101457.63;4993236;28;20395;-53
2023/04/29 04:41:01;;;;;;;3.03;2.58;;;;;;;12.22;87.83;101452.09;4993510;28;20112;-52
2023/04/29 04:43:28;;;;;;;3.47;2.53;;;;;;;12.33;87.20;101453.34;4993772;28;20034;-53
2023/04/29 04:45:54;;;;;;;2.55;2.13;;;;;;;12.32;86.90;101457.88;4993695;28;20169;-52
2023/04/29 04:48:20;;;;;;;3.13;2.65;;;;;;;12.24;87.41;101457.25;4993494;28;20022;-52
2023/04/29 04:50:46;;;;;;;2.75;2.10;;;;;;;12.13;87.94;101458.66;4993618;28;20034;-52
2023/04/29 04:53:12;;;;;;;4.30;2.50;;;;;;;12.25;87.44;101464.25;4993790;28;20034;-55
2023/04/29 04:55:39;;;;;;;4.38;3.20;;;;;;;12.20;87.98;101470.22;4992672;28;20577;-54
2023/04/29 04:58:05;;;;;;;4.72;3.35;;;;;;;12.18;87.96;101466.94;4993415;28;20054;-50
2023/04/29 05:00:31;;;;;;;4.22;3.25;;;;;;;12.12;88.03;101470.41;4993621;28;20033;-56
2023/04/29 05:02:57;;;;;;;3.92;3.25;;;;;;;12.22;87.70;101467.38;4993503;28;20031;-54
2023/04/29 05:05:24;;;;;;;3.65;2.92;;;;;;;12.08;88.31;101469.16;4993201;28;20117;-52
2023/04/29 05:07:50;;;;;;;3.85;3.35;;;;;;;12.18;88.24;101477.66;4991919;28;20081;-50
2023/04/29 05:10:16;;;;;;;3.13;2.58;;;;;;;12.15;88.05;101478.06;4980794;28;20027;-51
2023/04/29 05:12:42;;;;;;;5.75;3.38;;;;;;;12.03;88.92;101482.34;4974070;28;20438;-52
2023/04/29 05:15:09;;;;;;;4.20;2.95;;;;;;;12.06;88.91;101485.47;4973803;28;20046;-50
2023/04/29 05:17:35;;;;;;;4.07;3.72;;;;;;;12.09;89.09;101479.69;4973627;28;20398;-53
2023/04/29 05:20:02;;;;;;;4.22;3.80;;;;;;;11.98;88.84;101488.31;4973729;28;20034;-52
2023/04/29 05:22:28;;;;;;;2.70;2.40;;;;;;;12.08;88.37;101487.94;4973951;28;20456;-55
2023/04/29 05:25:01;;;;;;;3.40;2.50;;;;;;;12.22;87.05;101486.16;4973821;28;20118;-53
2023/04/29 05:27:27;;;;;;;3.45;2.95;;;;;;;12.14;87.30;101482.59;4973448;28;20496;-54
2023/04/29 05:29:54;;;;;;;2.38;2.17;;;;;;;12.26;86.33;101485.53;4973670;28;20121;-52
2023/04/29 05:32:20;;;;;;;3.42;2.20;;;;;;;12.15;86.78;101492.28;4973663;28;20034;-52
2023/04/29 05:34:47;;;;;;;3.95;2.33;;;;;;;12.26;86.41;101498.13;4973785;28;20035;-52
2023/04/29 05:37:13;;;;;;;2.45;2.10;;;;;;;12.21;86.46;101501.41;4973151;28;20023;-51
2023/04/29 05:39:40;;;;;;;3.10;2.42;;;;;;;12.24;86.17;101506.38;4988433;28;20082;-52
2023/04/29 05:42:06;;;;;;;3.47;2.08;;;;;;;12.24;86.32;101498.31;4973320;28;20134;-52
2023/04/29 05:44:32;;;;;;;3.20;2.05;;;;;;;12.21;86.36;101509.44;4973457;28;20491;-52
2023/04/29 05:46:59;;;;;;;4.00;1.77;;;;;;;12.25;86.29;101499.97;4977909;28;20392;-52
2023/04/29 05:49:26;;;;;;;2.00;1.33;;;;;;;12.29;86.06;101501.25;4972732;28;20400;-52
2023/04/29 05:51:52;;;;;;;3.15;1.83;;;;;;;12.39;85.42;101500.88;4972873;28;20034;-53
2023/04/29 05:54:18;;;;;;;5.03;1.90;;;;;;;12.33;85.54;101499.81;4973166;28;20476;-53
2023/04/29 05:56:45;;;;;;;2.22;1.90;;;;;;;12.31;85.84;101493.81;4972970;28;20039;-58
2023/04/29 05:59:11;;;;;;;2.38;1.70;;;;;;;12.33;85.58;101502.50;4973154;28;20034;-53
2023/04/29 06:01:37;;;;;;;1.80;1.30;;;;;;;12.28;85.22;101498.78;4972926;28;20038;-54
2023/04/29 06:04:04;;;;;;;3.00;1.40;;;;;;;12.31;85.08;101496.50;4972774;28;20114;-53
2023/04/29 06:06:30;;;;;;;2.33;1.27;;;;;;;12.18;85.46;101506.34;4972762;28;20030;-52
2023/04/29 06:08:57;;;;;;;1.60;1.30;;;;;;;12.06;86.04;101500.75;4973069;28;20045;-53
2023/04/29 06:11:23;;;;;;;2.72;1.45;;;;;;;12.13;86.06;101497.03;4972885;28;20174;-54
2023/04/29 06:13:49;;;;;;;0.93;0.90;;;;;;;12.33;84.95;101496.31;4972997;28;20110;-51
2023/04/29 06:16:16;;;;;;;2.00;1.15;;;;;;;12.39;84.64;101495.50;4972656;28;20383;-53
2023/04/29 06:18:42;;;;;;;1.38;1.27;;;;;;;12.28;85.11;101493.41;4973160;28;20104;-52
2023/04/29 06:21:08;;;;;;;3.35;1.52;;;;;;;12.23;84.39;101487.81;4972684;28;20122;-51
2023/04/29 06:23:34;;;;;;;1.50;1.40;;;;;;;12.24;84.79;101492.13;4972971;28;20109;-52
2023/04/29 06:26:00;;;;;;;1.75;1.30;;;;;;;12.14;85.77;101503.25;4972626;28;20026;-52
2023/04/29 06:28:28;;;;;;;2.72;1.60;;;;;;;11.87;87.13;101497.75;4972847;28;20026;-53
2023/04/29 06:30:55;;;;;;;2.03;1.75;;;;;;;11.91;86.73;101502.72;4972984;28;20446;-48
2023/04/29 06:33:21;;;;;;;1.73;1.08;;;;;;;11.92;87.08;101502.50;4972894;28;20034;-52
2023/04/29 06:35:47;;;;;;;1.65;1.27;;;;;;;12.05;85.99;101499.09;4972849;28;20391;-53
2023/04/29 06:38:13;;;;;;;1.60;1.30;;;;;;;11.82;86.53;101505.56;4972447;28;20035;-53
2023/04/29 06:40:39;;;;;;;1.85;1.20;;;;;;;11.96;86.03;101502.97;4974577;28;20131;-48
2023/04/29 06:43:06;;;;;;;1.40;1.30;;;;;;;11.93;85.93;101511.38;4972661;28;20037;-52
2023/04/29 06:45:32;;;;;;;1.77;1.30;;;;;;;12.17;85.18;101515.44;4972842;28;20070;-50
2023/04/29 06:47:58;;;;;;;2.35;1.17;;;;;;;12.23;84.94;101514.66;4972445;28;20027;-49
2023/04/29 06:50:24;;;;;;;1.95;1.20;;;;;;;12.17;85.03;101513.59;4972609;28;20026;-50
2023/04/29 06:52:51;;;;;;;1.83;1.00;;;;;;;12.04;85.52;101516.19;4972779;28;20037;-49
2023/04/29 06:55:17;;;;;;;3.15;1.30;;;;;;;12.10;85.40;101515.38;4972944;28;20031;-53
2023/04/29 06:57:43;;;;;;;2.00;1.13;;;;;;;12.08;85.43;101512.91;4972480;28;20450;-53
2023/04/29 07:00:10;;;;;;;1.65;1.00;;;;;;;12.12;85.49;101511.50;4972943;28;20033;-52
2023/04/29 07:02:37;;;;;;;3.75;1.48;;;;;;;12.12;85.46;101513.34;4974485;28;20109;-51
2023/04/29 07:05:05;;;;;;;1.40;1.30;;;;;;;12.12;85.46;101510.66;4976134;28;20031;-50
2023/04/29 07:07:31;;;;;;;1.15;1.00;;;;;;;12.21;84.91;101512.13;4975828;28;20443;-51
2023/04/29 07:09:57;;;;;;;1.27;1.05;;;;;;;12.10;85.11;101512.72;4976100;28;20034;-49
2023/04/29 07:12:24;;;;;;;5.88;1.20;;;;;;;12.11;85.36;101519.75;4974618;28;20106;-51
2023/04/29 07:14:50;;;;;;;1.20;0.95;;;;;;;12.17;85.07;101523.50;4976060;28;20101;-53
2023/04/29 07:17:16;;;;;;;1.70;1.33;;;;;;;11.97;85.39;101518.03;4975601;28;20023;-51
2023/04/29 07:19:43;;;;;;;2.55;1.40;;;;;;;12.02;85.49;101513.72;4975953;28;20088;-51
2023/04/29 07:22:09;;;;;;;1.92;1.10;;;;;;;12.03;85.40;101515.38;4975739;28;20503;-52
2023/04/29 07:24:35;;;;;;;3.08;1.33;;;;;;;12.01;85.79;101513.91;4975918;28;20038;-49
2023/04/29 07:27:01;;;;;;;2.97;1.38;;;;;;;11.91;86.06;101519.66;4975860;28;20030;-50
2023/04/29 07:29:28;;;;;;;1.45;1.17;;;;;;;12.05;85.43;101515.19;4975829;28;20114;-53
2023/04/29 07:31:54;;;;;;;1.92;1.10;;;;;;;12.13;84.84;101523.06;4975580;28;20080;-53
2023/04/29 07:34:20;;;;;;;1.27;0.82;;;;;;;12.11;84.86;101512.53;4975681;28;20042;-52
2023/04/29 07:36:46;;;;;;;1.20;0.80;;;;;;;12.09;85.12;101519.09;4975506;28;20078;-49
2023/04/29 07:39:14;;;;;;;0.98;0.80;;;;;;;11.98;85.96;101515.13;4975617;28;20165;-52
2023/04/29 07:41:40;;;;;;;2.72;1.02;;;;;;;11.84;86.71;101516.94;4977146;28;20523;-53
2023/04/29 07:44:06;;;;;;;1.30;0.90;;;;;;;11.94;85.99;101513.03;4975537;28;20106;-49
2023/04/29 07:46:33;;;;;;;2.70;1.10;;;;;;;11.91;86.01;101513.44;4975207;28;20027;-52
2023/04/29 07:48:59;;;;;;;0.75;0.75;;;;;;;12.01;85.40;101519.28;4975451;28;20022;-53
2023/04/29 07:51:27;;;;;;;0.88;0.88;;;;;;;12.01;85.37;101519.28;4975451;28;20089;-52
2023/04/29 07:53:53;;;;;;;0.80;0.80;;;;;;;11.98;85.34;101515.13;4975264;28;20023;-53
2023/04/29 07:56:22;;;;;;;1.92;1.00;;;;;;;12.00;85.47;101514.97;4975176;28;20035;-52
2023/04/29 07:58:48;;;;;;;3.45;1.00;;;;;;;12.10;85.05;101523.44;4975249;28;20106;-53
2023/04/29 08:01:14;;;;;;;0.80;0.80;;;;;;;12.00;84.79;101517.63;4975256;28;20194;-53
2023/04/29 08:03:40;;;;;;;1.10;1.00;;;;;;;12.06;85.10;101519.53;4975024;28;20030;-52
2023/04/29 08:06:06;;;;;;;1.75;1.08;;;;;;;12.08;84.63;101520.13;4974985;28;20027;-52
2023/04/29 08:08:33;;;;;;;2.08;1.45;;;;;;;12.15;83.92;101521.81;4974897;28;20432;-53
2023/04/29 08:11:00;;;;;;;0.77;0.65;;;;;;;12.04;84.75;101519.69;4975103;28;20023;-53
2023/04/29 08:13:26;;;;;;;1.52;1.05;;;;;;;12.21;83.93;101514.00;4974860;28;20077;-53
2023/04/29 08:15:52;;;;;;;1.45;0.90;;;;;;;12.17;83.78;101512.75;4974822;28;20023;-52
2023/04/29 08:18:20;;;;;;;1.00;0.70;;;;;;;12.26;83.71;101508.84;4974808;28;20054;-53
2023/04/29 08:20:48;;;;;;;0.98;0.88;;;;;;;12.23;83.50;101504.72;4974821;28;20031;-52
2023/04/29 08:23:14;;;;;;;1.90;0.70;;;;;;;12.12;84.02;101502.63;4974910;28;20111;-48
2023/04/29 08:25:42;;;;;;;1.40;0.82;;;;;;;12.12;84.09;101506.13;4974696;28;20046;-48
2023/04/29 08:28:09;;;;;;;0.75;0.70;;;;;;;12.04;84.16;101503.59;4974388;28;20033;-50
2023/04/29 08:30:41;;;;;;;2.83;0.90;;;;;;;12.11;83.93;101501.78;4974660;28;20483;-50
2023/04/29 08:33:08;;;;;;;1.85;1.00;;;;;;;11.99;84.21;101510.59;4974645;28;20030;-52
2023/04/29 08:35:38;;;;;;;0.82;0.82;;;;;;;11.93;84.81;101500.66;4974671;28;20026;-53
2023/04/29 08:38:05;;;;;;;1.88;0.80;;;;;;;12.07;84.45;101507.75;4974522;28;20056;-52
2023/04/29 08:40:36;;;;;;;0.70;0.57;;;;;;;11.94;84.51;101502.31;4976039;28;20042;-52
2023/04/29 08:43:04;;;;;;;1.70;0.80;;;;;;;11.78;84.78;101504.28;4974314;28;20027;-48
2023/04/29 08:45:32;;;;;;;0.70;0.65;;;;;;;11.94;84.15;101507.69;4974580;28;20490;-52
2023/04/29 08:48:02;;;;;;;0.60;0.60;;;;;;;12.13;82.92;101506.97;4974438;28;20042;-53
2023/04/29 08:50:29;;;;;;;0.73;0.70;;;;;;;11.77;84.42;101496.41;4974375;28;20115;-49
2023/04/29 08:52:58;;;;;;;0.75;0.65;;;;;;;11.87;84.34;101499.59;4974522;28;20050;-52
2023/04/29 08:55:25;;;;;;;0.70;0.70;;;;;;;11.83;84.02;101496.50;4974117;28;20499;-51
2023/04/29 08:57:54;;;;;;;2.78;0.93;;;;;;;11.99;83.39;101499.84;4973979;28;20037;-50
2023/04/29 09:00:22;;;;;;;1.75;0.77;;;;;;;11.97;84.19;101501.94;4974260;28;20476;-52
2023/04/29 09:02:52;;;;;;;1.00;0.90;;;;;;;12.01;83.36;101498.66;4973932;28;20038;-53
2023/04/29 09:05:19;;;;;;;1.15;0.52;;;;;;;12.10;82.48;101508.19;4973983;28;20023;-52
2023/04/29 09:07:46;;;;;;;1.08;0.70;;;;;;;12.00;82.80;101496.19;4973779;28;20058;-52
2023/04/29 09:10:13;;;;;;;0.73;0.60;;;;;;;12.09;82.11;101500.31;4973829;28;20050;-52
2023/04/29 09:12:40;;;;;;;1.05;0.50;;;;;;;11.85;83.28;101491.75;4973941;28;20552;-52
2023/04/29 09:15:07;;;;;;;0.70;0.60;;;;;;;11.82;83.28;101494.00;4972551;28;20130;-52
2023/04/29 09:17:45;;;;;;;0.93;0.50;;;;;;;11.52;84.36;101494.22;4973554;28;20054;-50
2023/04/29 09:20:20;;;;;;;1.23;0.52;;;;;;;11.78;83.34;101485.50;4973752;28;20027;-52
2023/04/29 09:22:50;;;;;;;1.15;0.82;;;;;;;11.57;83.95;101488.25;4972415;28;20030;-52
2023/04/29 09:25:16;;;;;;;0.63;0.60;;;;;;;11.51;84.43;101489.06;4973222;28;20037;-52
2023/04/29 09:27:42;;;;;;;0.90;0.90;;;;;;;11.53;84.61;101479.78;4973377;28;20105;-52
2023/04/29 09:30:11;;;;;;;1.08;0.80;;;;;;;11.42;85.18;101485.69;4973675;28;20114;-52
2023/04/29 09:32:37;;;;;;;1.80;0.80;;;;;;;11.45;85.04;101479.13;4973762;28;20086;-51
2023/04/29 09:35:26;;;;;;;0.85;0.82;;;;;;;11.46;84.77;101486.13;4973510;28;20026;-52
2023/04/29 09:37:53;;;;;;;0.60;0.60;;;;;;;11.45;84.94;101487.97;4973269;28;20023;-52
2023/04/29 09:40:33;;;;;;;0.60;0.55;;;;;;;11.36;85.30;101481.09;4974824;28;20102;-51
2023/04/29 09:43:00;;;;;;;0.60;0.60;;;;;;;11.46;84.94;101489.63;4974012;28;20042;-53
2023/04/29 09:45:46;;;;;;;0.85;0.70;;;;;;;11.55;84.87;101484.97;4973567;28;20027;-52
2023/04/29 09:48:14;;;;;;;0.77;0.70;;;;;;;11.22;86.41;101493.59;4974033;28;20483;-48
2023/04/29 09:50:57;;;;;;;1.58;0.70;;;;;;;11.35;86.21;101492.84;4973394;28;20061;-51
2023/04/29 09:53:28;;;;;;;0.93;0.70;;;;;;;11.40;85.98;101489.59;4973474;28;20027;-51
2023/04/29 09:56:00;;;;;;;0.77;0.77;;;;;;;11.50;85.76;101482.03;4972802;28;20486;-52
2023/04/29 09:58:39;;;;;;;1.13;0.95;;;;;;;11.52;85.28;101483.47;4973130;28;20038;-52
2023/04/29 10:01:06;;;;;;;2.72;1.38;;;;;;;11.45;86.12;101482.63;4972975;28;20027;-51
2023/04/29 10:03:34;;;;;;;1.45;1.02;;;;;;;11.42;86.15;101487.53;4973098;28;20027;-48
2023/04/29 10:06:02;;;;;;;1.40;1.30;;;;;;;11.35;86.83;101482.13;4972950;28;20391;-51
2023/04/29 10:08:29;;;;;;;1.42;1.33;;;;;;;11.46;86.43;101472.72;4972872;28;20030;-52
2023/04/29 10:11:00;;;;;;;1.98;1.25;;;;;;;11.13;87.67;101473.31;4973071;28;20082;-51
2023/04/29 10:13:27;;;;;;;2.22;1.60;;;;;;;11.18;87.93;101476.25;4972948;28;20023;-52
2023/04/29 10:16:12;;;;;;;1.95;1.75;;;;;;;11.11;88.53;101475.38;4972930;28;20026;-51
2023/04/29 10:18:42;;;;;;;2.05;1.63;;;;;;;11.20;88.44;101478.72;4972918;28;20058;-52
2023/04/29 10:21:09;;;;;;;1.83;1.52;;;;;;;11.31;88.02;101470.97;4972922;28;20035;-52
2023/04/29 10:23:36;;;;;;;2.25;1.45;;;;;;;11.29;88.26;101485.59;4972988;28;20033;-51
2023/04/29 10:26:03;;;;;;;1.55;1.00;;;;;;;11.34;87.76;101475.94;4972753;28;20101;-52
2023/04/29 10:28:32;;;;;;;1.58;1.08;;;;;;;11.33;87.24;101468.13;4972807;28;20120;-52
2023/04/29 10:31:05;;;;;;;0.80;0.80;;;;;;;11.33;86.59;101470.78;4972821;28;20518;-52
2023/04/29 10:33:34;;;;;;;1.00;1.00;;;;;;;11.35;86.77;101472.25;4972792;28;20121;-49
2023/04/29 10:36:02;;;;;;;1.85;1.15;;;;;;;11.31;87.15;101476.31;4972581;28;20023;-52
2023/04/29 10:38:44;;;;;;;1.35;0.90;;;;;;;11.29;87.22;101475.69;4976261;28;20030;-51
2023/04/29 10:41:24;;;;;;;1.02;0.90;;;;;;;11.32;86.52;101469.09;4978146;28;20158;-51
2023/04/29 10:43:54;;;;;;;0.98;0.75;;;;;;;11.26;86.71;101484.13;4976702;28;20388;-52
2023/04/29 10:46:27;;;;;;;0.85;0.85;;;;;;;11.25;86.57;101478.97;4976266;28;20110;-52
2023/04/29 10:49:02;;;;;;;1.67;1.00;;;;;;;11.33;86.56;101486.88;4976809;28;20023;-49
2023/04/29 10:51:42;;;;;;;2.20;1.25;;;;;;;11.21;86.85;101491.91;4976613;28;20747;-49
2023/04/29 10:54:09;;;;;;;1.10;0.82;;;;;;;11.28;86.52;101492.81;4976402;28;20063;-48
2023/04/29 10:56:48;;;;;;;1.20;1.10;;;;;;;11.32;86.06;101493.22;4976144;28;20031;-51
2023/04/29 10:59:35;;;;;;;1.40;1.30;;;;;;;11.30;85.84;101498.78;4976645;28;20034;-49
2023/04/29 11:02:02;;;;;;;1.05;0.95;;;;;;;11.37;85.36;101502.34;4976166;28;20109;-52
2023/04/29 11:04:30;;;;;;;1.52;1.35;;;;;;;11.30;85.32;101504.16;4976090;28;20062;-52
2023/04/29 11:07:01;;;;;;;4.35;1.60;;;;;;;11.26;85.71;101499.38;4975977;28;20387;-52
2023/04/29 11:12:21;;;;;;;2.65;1.77;;;;;;;11.34;85.55;101504.59;5088360;23;20085;-48
2023/04/29 11:14:51;;;;;;;1.85;1.50;;;;;;;11.18;86.70;101513.75;4994934;28;20031;-43
2023/04/29 11:17:19;;;;;;;1.85;1.40;;;;;;;11.30;86.17;101508.69;4994861;28;20010;-43
2023/04/29 11:19:50;;;;;;;1.00;0.90;;;;;;;11.29;86.03;101505.19;4987741;28;20096;-44
2023/04/29 11:22:22;;;;;;;1.13;0.80;;;;;;;11.37;85.45;101507.69;4976412;28;20034;-44
2023/04/29 11:24:50;;;;;;;1.33;0.50;;;;;;;11.44;84.70;101514.97;4990885;28;21533;-43
2023/04/29 11:27:18;;;;;;;1.58;0.82;;;;;;;11.57;84.54;101515.06;4977814;28;20375;-42
2023/04/29 11:29:46;;;;;;;1.00;0.90;;;;;;;11.52;84.03;101506.78;4975560;28;20027;-46
2023/04/29 11:32:13;;;;;;;0.70;0.70;;;;;;;11.53;84.16;101503.91;4975880;28;20089;-43